createdAt,value
2022-10-18T00:00:02.368Z,101439.84
2022-10-18T00:03:06.687Z,101443.63
2022-10-18T00:05:49.560Z,101445.59
2022-10-18T00:08:31.915Z,101448.21
2022-10-18T00:11:13.712Z,101445.30
2022-10-18T00:13:57.035Z,101448.95
2022-10-18T00:16:38.827Z,101450.70
2022-10-18T00:19:20.519Z,101451.83
2022-10-18T00:22:02.155Z,101447.40
2022-10-18T00:24:44.413Z,101448.20
2022-10-18T00:27:26.103Z,101442.27
2022-10-18T00:30:08.511Z,101441.79
2022-10-18T00:32:50.206Z,101446.94
2022-10-18T00:35:35.279Z,101449.39
2022-10-18T00:38:16.963Z,101446.14
2022-10-18T00:40:58.756Z,101446.05
2022-10-18T00:44:04.618Z,101446.36
2022-10-18T00:46:48.865Z,101450.58
2022-10-18T00:49:34.164Z,101446.63
2022-10-18T00:52:26.582Z,101446.91
2022-10-18T00:55:10.061Z,101445.52
2022-10-18T00:57:52.249Z,101449.69
2022-10-18T01:00:38.926Z,101453.49
2022-10-18T01:03:20.720Z,101448.66
2022-10-18T01:06:02.409Z,101447.07
2022-10-18T01:09:09.291Z,101446.32
2022-10-18T01:11:59.994Z,101443.48
2022-10-18T01:14:53.051Z,101442.46
2022-10-18T01:18:04.542Z,101448.39
2022-10-18T01:21:04.698Z,101444.31
2022-10-18T01:24:15.846Z,101442.59
2022-10-18T01:27:35.835Z,101444.66
2022-10-18T01:30:37.085Z,101446.87
2022-10-18T01:33:36.286Z,101443.71
2022-10-18T01:36:35.925Z,101435.84
2022-10-18T01:39:29.056Z,101440.39
2022-10-18T01:42:14.132Z,101439.61
2022-10-18T01:44:56.641Z,101440.15
2022-10-18T01:47:39.250Z,101435.05
2022-10-18T01:50:32.348Z,101431.92
2022-10-18T01:53:32.269Z,101429.54
2022-10-18T01:56:22.928Z,101428.71
2022-10-18T01:59:21.822Z,101432.19
2022-10-18T02:02:25.427Z,101430.67
2022-10-18T02:05:25.958Z,101435.93
2022-10-18T02:08:29.313Z,101430.29
2022-10-18T02:11:14.033Z,101429.59
2022-10-18T02:14:00.550Z,101434.04
2022-10-18T02:16:48.563Z,101435.19
2022-10-18T02:19:35.579Z,101433.11
2022-10-18T02:22:18.703Z,101438.00
2022-10-18T02:25:05.618Z,101436.16
2022-10-18T02:27:47.922Z,101439.71
2022-10-18T02:30:37.417Z,101439.28
2022-10-18T02:33:30.554Z,101429.41
2022-10-18T02:36:38.153Z,101431.86
2022-10-18T02:39:29.576Z,101428.91
2022-10-18T02:42:12.082Z,101436.06
2022-10-18T02:44:53.714Z,101438.48
2022-10-18T02:47:35.465Z,101435.44
2022-10-18T02:50:17.882Z,101432.31
2022-10-18T02:52:59.665Z,101435.11
2022-10-18T02:55:41.357Z,101439.30
2022-10-18T02:58:23.046Z,101445.30
2022-10-18T03:01:04.817Z,101448.84
2022-10-18T03:03:46.532Z,101453.24
2022-10-18T03:06:28.631Z,101456.65
2022-10-18T03:09:10.528Z,101456.54
2022-10-18T03:11:52.219Z,101458.06
2022-10-18T03:14:33.911Z,101459.15
2022-10-18T03:17:15.804Z,101455.70
2022-10-18T03:19:57.496Z,101459.52
2022-10-18T03:22:39.393Z,101460.86
2022-10-18T03:25:21.081Z,101459.88
2022-10-18T03:28:02.879Z,101462.24
2022-10-18T03:30:44.566Z,101453.50
2022-10-18T03:33:26.257Z,101459.14
2022-10-18T03:36:08.050Z,101464.25
2022-10-18T03:38:49.741Z,101465.23
2022-10-18T03:41:31.637Z,101467.41
2022-10-18T03:44:13.327Z,101463.67
2022-10-18T03:46:55.022Z,101463.10
2022-10-18T03:49:36.711Z,101463.83
2022-10-18T03:52:18.400Z,101462.36
2022-10-18T03:55:00.107Z,101459.78
2022-10-18T03:57:41.884Z,101465.66
2022-10-18T04:00:23.575Z,101476.79
2022-10-18T04:03:05.368Z,101473.43
2022-10-18T04:05:47.982Z,101477.59
2022-10-18T04:08:30.696Z,101474.70
2022-10-18T04:11:13.617Z,101469.14
2022-10-18T04:13:55.574Z,101466.09
2022-10-18T04:16:37.404Z,101467.51
2022-10-18T04:19:19.302Z,101467.25
2022-10-18T04:22:01.099Z,101472.01
2022-10-18T04:24:42.794Z,101477.83
2022-10-18T04:27:24.491Z,101471.37
2022-10-18T04:30:06.991Z,101473.27
2022-10-18T04:32:48.679Z,101470.87
2022-10-18T04:35:30.473Z,101476.12
2022-10-18T04:38:12.165Z,101475.42
2022-10-18T04:40:53.956Z,101467.28
2022-10-18T04:43:35.730Z,101466.02
2022-10-18T04:46:17.647Z,101468.63
2022-10-18T04:49:01.385Z,101467.52
2022-10-18T04:51:43.177Z,101469.36
2022-10-18T04:54:26.563Z,101465.88
2022-10-18T04:57:10.349Z,101468.09
2022-10-18T04:59:52.039Z,101467.34
2022-10-18T05:02:34.024Z,101466.23
2022-10-18T05:05:16.140Z,101468.59
2022-10-18T05:07:57.848Z,101468.94
2022-10-18T05:10:39.725Z,101467.52
2022-10-18T05:13:21.826Z,101462.81
2022-10-18T05:16:04.336Z,101460.34
2022-10-18T05:18:46.232Z,101459.64
2022-10-18T05:21:28.027Z,101461.52
2022-10-18T05:24:11.865Z,101459.94
2022-10-18T05:26:54.068Z,101463.70
2022-10-18T05:29:35.761Z,101462.78
2022-10-18T05:32:17.757Z,101464.09
2022-10-18T05:34:59.859Z,101456.58
2022-10-18T05:37:41.762Z,101448.14
2022-10-18T05:40:23.855Z,101447.02
2022-10-18T05:43:05.603Z,101442.30
2022-10-18T05:45:51.544Z,101443.73
2022-10-18T05:48:33.637Z,101447.06
2022-10-18T05:51:15.635Z,101449.89
2022-10-18T05:53:57.942Z,101451.93
2022-10-18T05:56:40.269Z,101454.91
2022-10-18T05:59:22.346Z,101455.10
2022-10-18T06:02:04.242Z,101457.52
2022-10-18T06:04:46.035Z,101457.33
2022-10-18T06:07:27.743Z,101452.92
2022-10-18T06:10:10.750Z,101452.00
2022-10-18T06:12:52.950Z,101453.42
2022-10-18T06:15:34.643Z,101456.80
2022-10-18T06:18:16.743Z,101458.70
2022-10-18T06:21:00.041Z,101460.14
2022-10-18T06:23:42.487Z,101459.52
2022-10-18T06:26:25.092Z,101464.17
2022-10-18T06:29:06.926Z,101468.78
2022-10-18T06:31:48.680Z,101471.69
2022-10-18T06:34:31.291Z,101475.38
2022-10-18T06:37:13.090Z,101476.02
2022-10-18T06:39:54.877Z,101476.09
2022-10-18T06:42:36.568Z,101476.82
2022-10-18T06:45:20.309Z,101487.58
2022-10-18T06:48:01.998Z,101491.64
2022-10-18T06:50:50.588Z,101496.64
2022-10-18T06:53:40.752Z,101502.23
2022-10-18T06:56:36.359Z,101502.83
2022-10-18T06:59:18.458Z,101504.33
2022-10-18T07:02:00.840Z,101503.71
2022-10-18T07:04:44.502Z,101505.30
2022-10-18T07:07:26.500Z,101508.33
2022-10-18T07:10:11.189Z,101509.05
2022-10-18T07:13:07.973Z,101510.31
2022-10-18T07:16:18.671Z,101511.11
2022-10-18T07:19:00.575Z,101510.35
2022-10-18T07:21:42.263Z,101512.27
2022-10-18T07:24:24.132Z,101507.79
2022-10-18T07:27:07.284Z,101509.75
2022-10-18T07:29:52.970Z,101505.92
2022-10-18T07:32:35.072Z,101508.29
2022-10-18T07:35:16.865Z,101510.09
2022-10-18T07:37:58.556Z,101509.11
2022-10-18T07:40:40.246Z,101509.53
2022-10-18T07:43:21.938Z,101510.06
2022-10-18T07:46:06.596Z,101505.36
2022-10-18T07:48:48.699Z,101507.48
2022-10-18T07:51:32.972Z,101507.55
2022-10-18T07:54:15.663Z,101506.90
2022-10-18T07:56:57.371Z,101511.70
2022-10-18T07:59:39.250Z,101508.55
2022-10-18T08:02:20.939Z,101506.45
2022-10-18T08:05:02.876Z,101501.43
2022-10-18T08:07:44.628Z,101504.63
2022-10-18T08:10:27.934Z,101495.84
2022-10-18T08:13:10.468Z,101500.98
2022-10-18T08:16:00.557Z,101496.75
2022-10-18T08:18:42.254Z,101496.67
2022-10-18T08:21:23.938Z,101488.34
2022-10-18T08:24:06.140Z,101486.95
2022-10-18T08:26:51.368Z,101477.44
2022-10-18T08:29:33.151Z,101473.34
2022-10-18T08:32:17.261Z,101474.95
2022-10-18T08:34:58.919Z,101472.41
2022-10-18T08:37:40.740Z,101472.27
2022-10-18T08:40:23.147Z,101470.49
2022-10-18T08:43:43.958Z,101474.79
2022-10-18T08:46:26.158Z,101475.79
2022-10-18T08:49:19.521Z,101476.33
2022-10-18T08:52:02.443Z,101476.78
2022-10-18T08:54:55.806Z,101476.19
2022-10-18T08:57:37.602Z,101476.55
2022-10-18T09:00:25.163Z,101471.89
2022-10-18T09:03:22.262Z,101469.28
2022-10-18T09:06:23.619Z,101468.13
2022-10-18T09:09:27.442Z,101472.59
2022-10-18T09:12:27.052Z,101472.69
2022-10-18T09:15:48.066Z,101466.95
2022-10-18T09:18:57.550Z,101453.32
2022-10-18T09:21:53.455Z,101441.77
2022-10-18T09:24:44.922Z,101439.92
2022-10-18T09:27:39.251Z,101442.44
2022-10-18T09:31:09.673Z,101449.48
2022-10-18T09:33:58.257Z,101450.08
2022-10-18T09:36:40.940Z,101454.52
2022-10-18T09:39:32.975Z,101456.43
2022-10-18T09:42:30.548Z,101459.04
2022-10-18T09:45:32.268Z,101455.36
2022-10-18T09:48:22.798Z,101456.84
2022-10-18T09:51:18.104Z,101462.79
2022-10-18T09:54:06.045Z,101459.89
2022-10-18T09:56:51.629Z,101459.33
2022-10-18T09:59:47.005Z,101454.05
2022-10-18T10:02:28.755Z,101453.89
2022-10-18T10:05:14.403Z,101452.75
2022-10-18T10:08:02.352Z,101451.69
2022-10-18T10:10:47.700Z,101443.16
2022-10-18T10:13:29.520Z,101440.46
2022-10-18T10:16:11.212Z,101433.02
2022-10-18T10:18:54.642Z,101433.60
2022-10-18T10:21:40.238Z,101440.88
2022-10-18T10:24:33.896Z,101441.30
2022-10-18T10:27:21.219Z,101436.84
2022-10-18T10:30:07.366Z,101432.56
2022-10-18T10:32:51.674Z,101433.80
2022-10-18T10:35:53.002Z,101439.92
2022-10-18T10:38:35.784Z,101444.44
2022-10-18T10:41:23.988Z,101442.27
2022-10-18T10:44:16.011Z,101437.90
2022-10-18T10:46:58.522Z,101432.81
2022-10-18T10:49:46.978Z,101431.42
2022-10-18T10:52:29.686Z,101428.56
2022-10-18T10:55:35.317Z,101425.49
2022-10-18T10:58:18.463Z,101416.23
2022-10-18T11:01:18.691Z,101414.91
2022-10-18T11:04:04.069Z,101422.20
2022-10-18T11:07:08.935Z,101421.61
2022-10-18T11:09:56.354Z,101412.38
2022-10-18T11:12:44.289Z,101397.73
2022-10-18T11:15:49.546Z,101394.52
2022-10-18T11:18:36.846Z,101390.27
2022-10-18T11:21:32.036Z,101378.33
2022-10-18T11:24:16.800Z,101363.95
2022-10-18T11:27:21.018Z,101355.64
2022-10-18T11:30:19.093Z,101362.98
2022-10-18T11:33:25.487Z,101357.96
2022-10-18T11:36:17.732Z,101351.22
2022-10-18T11:39:16.492Z,101345.77
2022-10-18T11:42:22.248Z,101340.06
2022-10-18T11:45:38.960Z,101334.30
2022-10-18T11:48:39.493Z,101328.70
2022-10-18T11:52:07.443Z,101323.98
2022-10-18T11:55:13.838Z,101326.05
2022-10-18T11:58:34.757Z,101336.09
2022-10-18T12:01:58.936Z,101336.21
2022-10-18T12:05:22.684Z,101346.64
2022-10-18T12:08:12.596Z,101375.91
2022-10-18T12:11:06.269Z,101382.83
2022-10-18T12:13:57.019Z,101378.33
2022-10-18T12:17:20.199Z,101370.65
2022-10-18T12:19:46.465Z,101364.89
2022-10-18T12:22:35.028Z,101356.91
2022-10-18T12:25:19.845Z,101354.86
2022-10-18T12:28:38.861Z,101356.38
2022-10-18T12:31:35.549Z,101356.29
2022-10-18T12:34:24.941Z,101341.10
2022-10-18T12:37:38.396Z,101332.71
2022-10-18T12:40:33.680Z,101317.07
2022-10-18T12:43:27.177Z,101304.43
2022-10-18T12:46:13.801Z,101299.81
2022-10-18T12:49:05.660Z,101308.81
2022-10-18T12:51:58.744Z,101318.91
2022-10-18T12:54:40.870Z,101324.41
2022-10-18T12:57:23.891Z,101334.64
2022-10-18T13:00:06.330Z,101347.23
2022-10-18T13:03:14.510Z,101365.61
2022-10-18T13:06:02.976Z,101365.35
2022-10-18T13:08:51.207Z,101344.48
2022-10-18T13:11:36.146Z,101330.91
2022-10-18T13:15:12.544Z,101339.95
2022-10-18T13:18:04.914Z,101339.05
2022-10-18T13:21:23.545Z,101327.05
2022-10-18T13:24:33.189Z,101331.65
2022-10-18T13:27:36.262Z,101334.81
2022-10-18T13:30:18.592Z,101335.68
2022-10-18T13:33:19.632Z,101340.23
2022-10-18T13:36:21.780Z,101340.64
2022-10-18T13:39:06.361Z,101342.33
2022-10-18T13:41:48.053Z,101334.19
2022-10-18T13:44:39.988Z,101321.90
2022-10-18T13:47:36.830Z,101316.65
2022-10-18T13:50:38.259Z,101317.44
2022-10-18T13:53:31.933Z,101316.81
2022-10-18T13:56:45.390Z,101319.55
2022-10-18T13:59:52.067Z,101332.13
2022-10-18T14:02:51.474Z,101335.67
2022-10-18T14:05:51.929Z,101343.67
2022-10-18T14:08:56.877Z,101354.41
2022-10-18T14:11:50.006Z,101348.48
2022-10-18T14:14:46.855Z,101347.29
2022-10-18T14:17:47.392Z,101352.90
2022-10-18T14:20:49.095Z,101340.50
2022-10-18T14:23:37.045Z,101333.61
2022-10-18T14:26:21.932Z,101324.20
2022-10-18T14:29:16.257Z,101326.35
2022-10-18T14:31:59.045Z,101323.73
2022-10-18T14:34:44.832Z,101323.91
2022-10-18T14:37:37.528Z,101319.09
2022-10-18T14:40:46.131Z,101313.81
2022-10-18T14:43:28.536Z,101312.84
2022-10-18T14:46:30.208Z,101311.16
2022-10-18T14:49:16.745Z,101301.29
2022-10-18T14:52:00.914Z,101293.07
2022-10-18T14:54:44.119Z,101285.41
2022-10-18T14:57:34.448Z,101280.21
2022-10-18T15:00:28.528Z,101274.02
2022-10-18T15:03:15.209Z,101284.84
2022-10-18T15:05:59.691Z,101298.70
2022-10-18T15:08:44.084Z,101309.09
2022-10-18T15:11:27.987Z,101326.27
2022-10-18T15:14:17.232Z,101340.75
2022-10-18T15:17:04.152Z,101344.90
2022-10-18T15:20:08.074Z,101351.73
2022-10-18T15:22:52.438Z,101352.95
2022-10-18T15:25:36.777Z,101347.95
2022-10-18T15:28:31.342Z,101351.09
2022-10-18T15:31:24.341Z,101343.86
2022-10-18T15:34:27.241Z,101340.48
2022-10-18T15:37:17.831Z,101340.40
2022-10-18T15:40:21.737Z,101340.20
2022-10-18T15:43:25.894Z,101341.38
2022-10-18T15:46:32.606Z,101334.65
2022-10-18T15:49:38.522Z,101342.19
2022-10-18T15:52:37.449Z,101342.78
2022-10-18T15:55:30.515Z,101344.86
2022-10-18T15:58:16.584Z,101346.25
2022-10-18T16:01:01.802Z,101350.06
2022-10-18T16:03:47.323Z,101350.36
2022-10-18T16:06:29.286Z,101353.45
2022-10-18T16:09:16.919Z,101356.16
2022-10-18T16:11:58.817Z,101354.43
2022-10-18T16:14:40.504Z,101348.90
2022-10-18T16:17:22.196Z,101351.06
2022-10-18T16:20:05.118Z,101351.08
2022-10-18T16:22:46.854Z,101353.83
2022-10-18T16:25:39.833Z,101354.67
2022-10-18T16:28:28.647Z,101349.84
2022-10-18T16:31:17.518Z,101354.17
2022-10-18T16:33:59.988Z,101356.27
2022-10-18T16:36:41.780Z,101355.34
2022-10-18T16:39:24.087Z,101367.98
2022-10-18T16:42:05.985Z,101366.48
2022-10-18T16:44:49.314Z,101366.02
2022-10-18T16:47:31.002Z,101364.60
2022-10-18T16:50:19.349Z,101361.09
2022-10-18T16:53:01.042Z,101370.84
2022-10-18T16:55:43.653Z,101372.89
2022-10-18T16:58:27.705Z,101372.42
2022-10-18T17:01:17.536Z,101376.01
2022-10-18T17:03:59.273Z,101370.95
2022-10-18T17:06:41.073Z,101379.13
2022-10-18T17:09:22.825Z,101380.52
2022-10-18T17:12:05.283Z,101386.20
2022-10-18T17:14:46.957Z,101384.99
2022-10-18T17:17:28.756Z,101386.02
2022-10-18T17:20:20.347Z,101389.27
2022-10-18T17:23:02.066Z,101388.30
2022-10-18T17:25:59.141Z,101391.60
2022-10-18T17:29:09.076Z,101394.00
2022-10-18T17:31:51.786Z,101398.38
2022-10-18T17:34:36.067Z,101404.11
2022-10-18T17:37:17.932Z,101405.77
2022-10-18T17:39:59.828Z,101404.88
2022-10-18T17:42:41.928Z,101399.54
2022-10-18T17:45:24.075Z,101396.86
2022-10-18T17:48:06.339Z,101395.50
2022-10-18T17:50:48.845Z,101395.41
2022-10-18T17:53:31.152Z,101395.38
2022-10-18T17:56:15.006Z,101395.09
2022-10-18T17:58:57.391Z,101392.18
2022-10-18T18:01:39.723Z,101399.50
2022-10-18T18:04:21.702Z,101398.48
2022-10-18T18:07:05.133Z,101401.70
2022-10-18T18:09:47.233Z,101403.81
2022-10-18T18:12:29.624Z,101407.13
2022-10-18T18:15:14.609Z,101404.70
2022-10-18T18:17:57.957Z,101404.16
2022-10-18T18:20:40.141Z,101408.92
2022-10-18T18:23:21.835Z,101409.88
2022-10-18T18:26:04.035Z,101405.06
2022-10-18T18:28:46.036Z,101405.52
2022-10-18T18:31:32.483Z,101403.08
2022-10-18T18:34:22.797Z,101404.88
2022-10-18T18:37:04.899Z,101407.18
2022-10-18T18:39:46.725Z,101410.82
2022-10-18T18:42:29.896Z,101407.53
2022-10-18T18:45:12.215Z,101408.97
2022-10-18T18:47:53.978Z,101408.25
2022-10-18T18:50:37.381Z,101407.24
2022-10-18T18:53:19.892Z,101402.29
2022-10-18T18:56:11.770Z,101402.57
2022-10-18T18:58:54.118Z,101404.13
2022-10-18T19:01:37.560Z,101405.95
2022-10-18T19:04:19.658Z,101406.02
2022-10-18T19:07:01.555Z,101409.21
2022-10-18T19:09:44.882Z,101407.04
2022-10-18T19:12:26.530Z,101412.79
2022-10-18T19:15:16.362Z,101413.86
2022-10-18T19:17:59.375Z,101406.58
2022-10-18T19:20:41.271Z,101408.45
2022-10-18T19:23:23.292Z,101409.86
2022-10-18T19:26:25.087Z,101409.44
2022-10-18T19:29:13.174Z,101417.27
2022-10-18T19:31:57.750Z,101416.71
2022-10-18T19:34:40.651Z,101415.23
2022-10-18T19:37:22.548Z,101412.54
2022-10-18T19:40:05.085Z,101411.51
2022-10-18T19:42:49.108Z,101414.64
2022-10-18T19:45:31.728Z,101415.17
2022-10-18T19:48:13.641Z,101417.61
2022-10-18T19:50:55.364Z,101418.35
2022-10-18T19:53:39.315Z,101417.93
2022-10-18T19:56:23.692Z,101421.38
2022-10-18T19:59:05.391Z,101423.77
2022-10-18T20:01:49.464Z,101424.53
2022-10-18T20:04:34.635Z,101430.95
2022-10-18T20:07:16.406Z,101432.52
2022-10-18T20:09:58.102Z,101435.79
2022-10-18T20:12:39.739Z,101434.25
2022-10-18T20:15:21.373Z,101432.84
2022-10-18T20:18:03.063Z,101434.88
2022-10-18T20:20:48.148Z,101442.86
2022-10-18T20:23:30.134Z,101444.63
2022-10-18T20:26:20.527Z,101447.08
2022-10-18T20:29:03.735Z,101446.93
2022-10-18T20:31:45.651Z,101449.27
2022-10-18T20:34:28.775Z,101445.06
2022-10-18T20:37:10.671Z,101442.52
2022-10-18T20:39:52.566Z,101442.11
2022-10-18T20:42:34.264Z,101440.42
2022-10-18T20:45:17.546Z,101440.53
2022-10-18T20:47:59.278Z,101442.95
2022-10-18T20:50:52.293Z,101443.52
2022-10-18T20:53:35.871Z,101444.94
2022-10-18T20:56:23.095Z,101451.92
2022-10-18T20:59:06.506Z,101451.90
2022-10-18T21:01:48.382Z,101454.08
2022-10-18T21:04:30.210Z,101452.44
2022-10-18T21:07:11.902Z,101456.81
2022-10-18T21:09:53.592Z,101456.52
2022-10-18T21:12:35.648Z,101461.16
2022-10-18T21:15:17.999Z,101457.95
2022-10-18T21:17:59.690Z,101456.52
2022-10-18T21:20:41.379Z,101457.29
2022-10-18T21:23:23.172Z,101460.16
2022-10-18T21:26:05.892Z,101456.87
2022-10-18T21:28:49.350Z,101454.94
2022-10-18T21:31:35.005Z,101447.64
2022-10-18T21:34:17.627Z,101447.41
2022-10-18T21:36:59.410Z,101442.24
2022-10-18T21:39:42.536Z,101439.57
2022-10-18T21:42:24.226Z,101440.31
2022-10-18T21:45:06.940Z,101445.62
2022-10-18T21:47:49.145Z,101443.84
2022-10-18T21:50:30.781Z,101444.33
2022-10-18T21:53:13.856Z,101443.90
2022-10-18T21:55:55.546Z,101442.68
2022-10-18T21:58:37.750Z,101432.17
2022-10-18T22:01:25.372Z,101431.99
2022-10-18T22:04:17.310Z,101425.65
2022-10-18T22:06:59.732Z,101417.99
2022-10-18T22:09:42.127Z,101416.21
2022-10-18T22:12:24.125Z,101409.90
2022-10-18T22:15:06.384Z,101406.28
2022-10-18T22:17:48.224Z,101406.48
2022-10-18T22:20:29.915Z,101407.51
2022-10-18T22:23:13.140Z,101406.11
2022-10-18T22:25:54.833Z,101398.63
2022-10-18T22:28:38.031Z,101394.73
2022-10-18T22:31:22.516Z,101387.59
2022-10-18T22:34:07.386Z,101383.30
2022-10-18T22:36:49.275Z,101381.64
2022-10-18T22:39:30.969Z,101374.92
2022-10-18T22:42:12.657Z,101376.98
2022-10-18T22:44:54.314Z,101366.11
2022-10-18T22:47:36.318Z,101366.48
2022-10-18T22:50:18.446Z,101367.92
2022-10-18T22:53:00.137Z,101364.13
2022-10-18T22:55:41.787Z,101358.80
2022-10-18T22:58:23.929Z,101352.82
2022-10-18T23:01:08.526Z,101351.13
2022-10-18T23:03:58.472Z,101358.83
2022-10-18T23:06:40.371Z,101364.45
2022-10-18T23:09:22.060Z,101364.92
2022-10-18T23:12:03.854Z,101363.05
2022-10-18T23:14:46.055Z,101363.59
2022-10-18T23:17:27.951Z,101368.77
2022-10-18T23:20:10.255Z,101367.10
2022-10-18T23:22:52.664Z,101365.16
2022-10-18T23:25:40.427Z,101368.84
2022-10-18T23:28:23.233Z,101371.53
2022-10-18T23:31:15.201Z,101371.09
2022-10-18T23:34:02.192Z,101370.65
2022-10-18T23:39:30.457Z,101361.95
2022-10-18T23:42:12.250Z,101363.43
2022-10-18T23:44:53.942Z,101360.33
2022-10-18T23:47:35.786Z,101359.29
2022-10-18T23:50:17.835Z,101360.68
2022-10-18T23:52:59.526Z,101358.48
2022-10-18T23:55:53.095Z,101354.64
2022-10-18T23:58:36.611Z,101359.99
